createdAt,value
2024-03-05T00:00:19.886Z,57.50
2024-03-05T00:02:55.026Z,54.00
2024-03-05T00:05:09.995Z,53.25
2024-03-05T00:07:31.911Z,51.00
2024-03-05T00:09:40.328Z,46.75
2024-03-05T00:12:01.870Z,48.00
2024-03-05T00:14:10.145Z,50.75
2024-03-05T00:16:31.917Z,44.25
2024-03-05T00:18:46.883Z,50.50
2024-03-05T00:21:01.898Z,48.50
2024-03-05T00:23:23.897Z,55.50
2024-03-05T00:25:52.847Z,54.25
2024-03-05T00:28:21.788Z,43.50
2024-03-05T00:30:43.792Z,43.25
2024-03-05T00:32:54.985Z,46.00
2024-03-05T00:35:19.871Z,48.00
2024-03-05T00:37:28.005Z,50.75
2024-03-05T00:39:49.835Z,45.00
2024-03-05T00:42:04.879Z,48.50
2024-03-05T00:44:34.784Z,28.50
2024-03-05T00:46:56.962Z,53.00
2024-03-05T00:49:05.075Z,46.75
2024-03-05T00:51:26.787Z,45.50
2024-03-05T00:53:34.962Z,49.50
2024-03-05T00:55:56.983Z,42.50
2024-03-05T00:58:06.118Z,50.00
2024-03-05T01:00:27.853Z,46.00
2024-03-05T01:02:42.823Z,44.75
2024-03-05T01:04:58.579Z,46.25
2024-03-05T01:07:20.864Z,47.25
2024-03-05T01:09:30.073Z,42.50
2024-03-05T01:11:51.858Z,43.25
2024-03-05T01:14:21.853Z,38.25
2024-03-05T01:16:50.870Z,50.75
2024-03-05T01:19:06.828Z,48.50
2024-03-05T01:21:22.001Z,41.75
2024-03-05T01:23:38.791Z,43.50
2024-03-05T01:25:54.094Z,40.25
2024-03-05T01:28:08.880Z,38.50
2024-03-05T01:30:23.779Z,43.25
2024-03-05T01:32:32.005Z,41.75
2024-03-05T01:34:57.004Z,38.50
2024-03-05T01:37:05.381Z,34.50
2024-03-05T01:39:28.803Z,41.50
2024-03-05T01:41:37.895Z,44.50
2024-03-05T01:43:59.847Z,39.25
2024-03-05T01:46:14.944Z,37.00
2024-03-05T01:48:43.773Z,39.50
2024-03-05T01:51:12.880Z,37.25
2024-03-05T01:53:34.886Z,43.00
2024-03-05T01:55:46.979Z,35.00
2024-03-05T01:58:11.937Z,33.75
2024-03-05T02:00:27.424Z,32.00
2024-03-05T02:02:50.790Z,31.50
2024-03-05T02:05:06.085Z,29.00
2024-03-05T02:07:20.899Z,27.50
2024-03-05T02:09:36.970Z,30.00
2024-03-05T02:11:56.682Z,30.50
2024-03-05T02:14:16.269Z,29.00
2024-03-05T02:16:31.881Z,29.75
2024-03-05T02:18:47.294Z,24.50
2024-03-05T02:20:55.273Z,30.00
2024-03-05T02:23:10.822Z,29.00
2024-03-05T02:25:19.432Z,29.00
2024-03-05T02:27:35.480Z,32.00
2024-03-05T02:29:51.005Z,29.75
2024-03-05T02:32:05.754Z,29.25
2024-03-05T02:34:29.076Z,28.50
2024-03-05T02:36:37.245Z,30.25
2024-03-05T02:38:58.849Z,28.50
2024-03-05T02:41:07.542Z,31.75
2024-03-05T02:43:30.993Z,31.00
2024-03-05T02:45:39.522Z,30.50
2024-03-05T02:48:01.865Z,30.25
2024-03-05T02:50:18.766Z,30.75
2024-03-05T02:52:34.029Z,27.75
2024-03-05T02:54:48.824Z,28.50
2024-03-05T02:57:10.842Z,28.00
2024-03-05T02:59:19.182Z,30.00
2024-03-05T03:01:40.871Z,29.75
2024-03-05T03:03:49.294Z,28.75
2024-03-05T03:06:10.897Z,29.50
2024-03-05T03:08:19.218Z,30.50
2024-03-05T03:10:40.795Z,30.00
2024-03-05T03:13:03.173Z,26.75
2024-03-05T03:15:12.785Z,27.75
2024-03-05T03:17:34.872Z,27.00
2024-03-05T03:19:44.103Z,25.00
2024-03-05T03:22:05.752Z,29.75
2024-03-05T03:24:20.814Z,25.50
2024-03-05T03:26:49.813Z,27.50
2024-03-05T03:29:21.795Z,28.50
2024-03-05T03:31:50.863Z,30.00
2024-03-05T03:34:13.850Z,28.25
2024-03-05T03:36:29.990Z,26.00
2024-03-05T03:38:51.772Z,24.00
2024-03-05T03:40:59.968Z,24.00
2024-03-05T03:43:22.863Z,27.25
2024-03-05T03:45:30.954Z,25.75
2024-03-05T03:47:53.919Z,24.50
2024-03-05T03:50:02.130Z,23.75
2024-03-05T03:52:23.874Z,23.75
2024-03-05T03:54:31.979Z,24.00
2024-03-05T03:56:53.770Z,24.50
2024-03-05T03:59:08.874Z,24.75
2024-03-05T04:01:38.864Z,20.00
2024-03-05T04:04:00.829Z,23.75
2024-03-05T04:06:09.849Z,23.00
2024-03-05T04:08:31.798Z,24.75
2024-03-05T04:10:40.064Z,22.25
2024-03-05T04:13:01.863Z,25.25
2024-03-05T04:15:20.305Z,24.50
2024-03-05T04:17:39.355Z,24.75
2024-03-05T04:20:01.977Z,22.00
2024-03-05T04:22:16.784Z,23.50
2024-03-05T04:24:32.456Z,22.50
2024-03-05T04:26:48.831Z,21.00
2024-03-05T04:29:24.998Z,24.00
2024-03-05T04:32:02.931Z,20.00
2024-03-05T04:34:26.893Z,24.00
2024-03-05T04:36:35.150Z,22.00
2024-03-05T04:38:56.778Z,12.75
2024-03-05T04:41:05.829Z,23.00
2024-03-05T04:43:27.849Z,23.25
2024-03-05T04:45:42.779Z,24.25
2024-03-05T04:48:11.831Z,23.50
2024-03-05T04:50:33.767Z,25.00
2024-03-05T04:52:41.942Z,24.00
2024-03-05T04:55:04.764Z,24.75
2024-03-05T04:57:12.916Z,24.00
2024-03-05T04:59:35.841Z,24.25
2024-03-05T05:01:51.857Z,23.00
2024-03-05T05:04:13.824Z,24.75
2024-03-05T05:06:22.691Z,25.25
2024-03-05T05:08:44.780Z,21.00
2024-03-05T05:10:59.856Z,22.25
2024-03-05T05:13:28.815Z,23.00
2024-03-05T05:15:50.878Z,22.75
2024-03-05T05:18:02.656Z,22.75
2024-03-05T05:20:25.858Z,24.50
2024-03-05T05:22:43.416Z,24.00
2024-03-05T05:24:58.874Z,26.25
2024-03-05T05:27:21.862Z,24.00
2024-03-05T05:29:39.951Z,25.75
2024-03-05T05:32:03.994Z,23.00
2024-03-05T05:34:18.758Z,12.75
2024-03-05T05:36:33.943Z,25.00
2024-03-05T05:38:49.804Z,21.00
2024-03-05T05:41:06.573Z,23.00
2024-03-05T05:43:22.768Z,25.50
2024-03-05T05:45:45.876Z,26.25
2024-03-05T05:47:55.676Z,26.00
2024-03-05T05:50:25.799Z,25.00
2024-03-05T05:52:40.806Z,24.00
2024-03-05T05:55:04.891Z,25.00
2024-03-05T05:57:13.297Z,23.25
2024-03-05T05:59:34.758Z,24.75
2024-03-05T06:01:43.331Z,24.50
2024-03-05T06:04:06.803Z,23.50
2024-03-05T06:06:35.794Z,23.00
2024-03-05T06:08:57.812Z,23.00
2024-03-05T06:11:07.745Z,22.00
2024-03-05T06:13:30.790Z,24.00
2024-03-05T06:15:46.930Z,23.00
2024-03-05T06:18:15.827Z,21.00
2024-03-05T06:20:37.850Z,24.75
2024-03-05T06:22:48.013Z,24.00
2024-03-05T06:25:09.848Z,22.25
2024-03-05T06:27:18.401Z,19.75
2024-03-05T06:29:39.846Z,24.75
2024-03-05T06:31:55.887Z,23.00
2024-03-05T06:34:24.823Z,23.00
2024-03-05T06:36:48.828Z,24.00
2024-03-05T06:39:06.794Z,23.75
2024-03-05T06:41:37.730Z,23.00
2024-03-05T06:44:07.817Z,24.25
2024-03-05T06:46:22.827Z,26.00
2024-03-05T06:48:55.792Z,24.50
2024-03-05T06:51:34.810Z,24.00
2024-03-05T06:54:08.845Z,17.75
2024-03-05T06:56:48.834Z,25.75
2024-03-05T06:59:11.954Z,24.50
2024-03-05T07:01:26.020Z,24.50
2024-03-05T07:03:42.907Z,23.75
2024-03-05T07:06:00.791Z,23.00
2024-03-05T07:08:15.831Z,19.75
2024-03-05T07:10:30.914Z,22.75
2024-03-05T07:12:59.731Z,24.00
2024-03-05T07:15:29.794Z,24.25
2024-03-05T07:17:46.848Z,25.00
2024-03-05T07:20:04.568Z,21.75
2024-03-05T07:22:19.838Z,22.25
2024-03-05T07:24:35.029Z,23.25
2024-03-05T07:26:56.899Z,23.50
2024-03-05T07:29:19.738Z,28.75
2024-03-05T07:31:30.068Z,28.00
2024-03-05T07:33:53.628Z,25.25
2024-03-05T07:36:03.142Z,23.75
2024-03-05T07:38:24.812Z,22.75
2024-03-05T07:40:39.861Z,24.50
2024-03-05T07:43:11.768Z,23.75
2024-03-05T07:45:33.756Z,22.00
2024-03-05T07:47:41.997Z,23.50
2024-03-05T07:50:03.956Z,23.75
2024-03-05T07:52:21.789Z,24.50
2024-03-05T07:54:43.790Z,25.25
2024-03-05T07:56:52.033Z,23.00
2024-03-05T07:59:13.836Z,22.00
2024-03-05T08:01:23.039Z,23.75
2024-03-05T08:03:44.728Z,24.00
2024-03-05T08:05:59.836Z,24.00
2024-03-05T08:08:28.697Z,26.25
2024-03-05T08:10:58.897Z,25.00
2024-03-05T08:13:27.783Z,25.00
2024-03-05T08:15:56.755Z,24.50
2024-03-05T08:18:21.770Z,25.75
2024-03-05T08:20:39.749Z,24.25
2024-03-05T08:23:09.767Z,24.50
2024-03-05T08:25:31.903Z,22.50
2024-03-05T08:27:40.894Z,26.00
2024-03-05T08:30:02.892Z,26.00
2024-03-05T08:32:12.855Z,24.75
2024-03-05T08:34:34.831Z,24.25
2024-03-05T08:36:50.723Z,23.50
2024-03-05T08:39:22.738Z,24.00
2024-03-05T08:41:38.815Z,24.50
2024-03-05T08:44:07.853Z,26.50
2024-03-05T08:46:29.870Z,28.75
2024-03-05T08:48:38.946Z,25.00
2024-03-05T08:51:00.742Z,22.50
2024-03-05T08:53:17.819Z,26.25
2024-03-05T08:55:39.914Z,26.00
2024-03-05T08:57:48.862Z,27.50
2024-03-05T09:00:17.565Z,25.25
2024-03-05T09:02:46.770Z,26.00
2024-03-05T09:05:17.700Z,24.75
2024-03-05T09:07:39.983Z,25.25
2024-03-05T09:09:54.899Z,25.00
2024-03-05T09:12:09.866Z,25.00
2024-03-05T09:14:24.811Z,25.00
2024-03-05T09:16:40.781Z,24.50
2024-03-05T09:19:02.801Z,25.25
2024-03-05T09:21:19.797Z,24.75
2024-03-05T09:23:42.794Z,26.25
2024-03-05T09:25:51.279Z,25.25
2024-03-05T09:28:12.932Z,24.00
2024-03-05T09:30:21.220Z,25.25
2024-03-05T09:32:42.782Z,28.75
2024-03-05T09:34:57.821Z,27.00
2024-03-05T09:37:22.810Z,25.75
2024-03-05T09:39:44.770Z,25.00
2024-03-05T09:41:53.760Z,25.75
2024-03-05T09:44:16.844Z,25.50
2024-03-05T09:46:25.925Z,19.50
2024-03-05T09:48:47.714Z,23.75
2024-03-05T09:51:03.786Z,24.25
2024-03-05T09:53:32.705Z,24.00
2024-03-05T09:55:59.776Z,24.00
2024-03-05T09:58:16.075Z,26.25
2024-03-05T10:00:39.851Z,8.75
2024-03-05T10:02:58.783Z,25.00
2024-03-05T10:05:25.885Z,24.00
2024-03-05T10:07:36.187Z,23.75
2024-03-05T10:10:12.822Z,27.25
2024-03-05T10:12:23.799Z,23.75
2024-03-05T10:14:45.869Z,28.25
2024-03-05T10:17:04.994Z,25.75
2024-03-05T10:19:21.518Z,27.00
2024-03-05T10:21:37.804Z,21.67
2024-03-05T10:23:47.595Z,26.00
2024-03-05T10:26:02.892Z,24.00
2024-03-05T10:28:19.016Z,25.67
2024-03-05T10:30:41.819Z,28.00
2024-03-05T10:33:03.918Z,25.00
2024-03-05T10:35:19.788Z,24.00
2024-03-05T10:37:35.032Z,26.00
2024-03-05T10:42:33.766Z,24.67
2024-03-05T10:44:43.617Z,26.00
2024-03-05T10:47:06.815Z,23.00
2024-03-05T10:49:29.756Z,26.00
2024-03-05T10:51:46.847Z,23.67
2024-03-05T10:54:10.714Z,21.00
2024-03-05T10:56:32.845Z,20.33
2024-03-05T10:59:05.795Z,23.00
2024-03-05T11:01:33.194Z,21.67
2024-03-05T11:03:46.877Z,23.00
2024-03-05T11:06:11.696Z,21.67
2024-03-05T11:08:33.725Z,26.00
2024-03-05T11:11:00.824Z,23.00
2024-03-05T11:13:10.292Z,26.00
2024-03-05T11:15:31.767Z,22.33
2024-03-05T11:17:41.316Z,24.00
2024-03-05T11:20:04.931Z,27.33
2024-03-05T11:22:31.630Z,22.33
2024-03-05T11:24:48.688Z,9.67
2024-03-05T11:27:19.706Z,20.33
2024-03-05T11:29:30.946Z,24.00
2024-03-05T11:31:54.161Z,27.00
2024-03-05T11:34:03.804Z,22.00
2024-03-05T11:36:36.803Z,24.00
2024-03-05T11:38:58.224Z,23.67
2024-03-05T11:41:19.702Z,22.33
2024-03-05T11:43:38.218Z,23.75
2024-03-05T11:46:04.839Z,12.25
2024-03-05T11:48:17.820Z,23.75
2024-03-05T11:50:39.706Z,24.50
2024-03-05T11:52:54.834Z,24.00
2024-03-05T11:55:10.850Z,22.25
2024-03-05T11:57:25.933Z,22.75
2024-03-05T11:59:52.729Z,24.00
2024-03-05T12:02:07.806Z,20.75
2024-03-05T12:04:23.896Z,22.25
2024-03-05T12:06:38.726Z,23.75
2024-03-05T12:08:55.209Z,22.50
2024-03-05T12:11:11.873Z,24.00
2024-03-05T12:13:40.849Z,23.50
2024-03-05T12:16:02.910Z,25.00
2024-03-05T12:18:18.464Z,24.50
2024-03-05T12:20:40.775Z,23.00
2024-03-05T12:22:59.796Z,24.00
2024-03-05T12:25:21.808Z,24.00
2024-03-05T12:27:32.175Z,23.75
2024-03-05T12:29:58.806Z,25.00
2024-03-05T12:32:21.896Z,22.00
2024-03-05T12:34:43.841Z,24.75
2024-03-05T12:36:59.691Z,24.75
2024-03-05T12:39:31.771Z,25.00
2024-03-05T12:42:06.881Z,24.75
2024-03-05T12:44:22.722Z,23.33
2024-03-05T12:46:44.823Z,20.67
2024-03-05T12:49:00.700Z,22.33
2024-03-05T12:51:25.859Z,23.50
2024-03-05T12:53:34.885Z,25.33
2024-03-05T12:56:06.800Z,23.00
2024-03-05T12:58:17.029Z,24.00
2024-03-05T13:00:42.699Z,22.33
2024-03-05T13:02:58.795Z,24.25
2024-03-05T13:05:27.782Z,22.00
2024-03-05T13:07:50.001Z,19.00
2024-03-05T13:10:07.785Z,24.00
2024-03-05T13:12:22.737Z,21.33
2024-03-05T13:14:44.700Z,24.00
2024-03-05T13:16:54.127Z,24.25
2024-03-05T13:19:16.777Z,23.00
2024-03-05T13:21:25.129Z,23.50
2024-03-05T13:23:50.789Z,23.67
2024-03-05T13:25:59.270Z,22.00
2024-03-05T13:28:21.812Z,20.67
2024-03-05T13:30:36.789Z,27.00
2024-03-05T13:33:01.565Z,25.25
2024-03-05T13:35:18.698Z,23.33
2024-03-05T13:37:42.826Z,22.67
2024-03-05T13:39:51.173Z,23.33
2024-03-05T13:42:05.688Z,23.00
2024-03-05T13:44:15.862Z,24.67
2024-03-05T13:46:31.945Z,24.33
2024-03-05T13:48:47.122Z,23.33
2024-03-05T13:51:01.709Z,22.67
2024-03-05T13:53:23.796Z,24.00
2024-03-05T13:55:32.041Z,26.75
2024-03-05T13:57:53.862Z,23.00
2024-03-05T14:00:04.116Z,23.00
2024-03-05T14:02:26.779Z,25.00
2024-03-05T14:04:42.813Z,23.67
2024-03-05T14:07:04.766Z,24.33
2024-03-05T14:09:33.751Z,23.00
2024-03-05T14:12:04.845Z,24.00
2024-03-05T14:14:33.750Z,22.67
2024-03-05T14:16:56.857Z,6.33
2024-03-05T14:19:05.896Z,20.00
2024-03-05T14:21:27.828Z,22.33
2024-03-05T14:23:43.759Z,22.00
2024-03-05T14:26:05.956Z,9.00
2024-03-05T14:28:22.791Z,23.00
2024-03-05T14:30:46.782Z,23.00
2024-03-05T14:32:59.163Z,24.00
2024-03-05T14:35:20.710Z,23.33
2024-03-05T14:37:29.173Z,22.00
2024-03-05T14:39:50.683Z,24.00
2024-03-05T14:42:05.790Z,24.00
2024-03-05T14:44:34.752Z,22.33
2024-03-05T14:46:57.938Z,24.00
2024-03-05T14:49:09.127Z,22.00
2024-03-05T14:51:33.698Z,22.33
2024-03-05T14:53:49.701Z,20.33
2024-03-05T14:56:18.727Z,22.00
2024-03-05T14:58:47.952Z,24.67
2024-03-05T15:01:09.768Z,23.67
2024-03-05T15:03:19.486Z,24.00
2024-03-05T15:05:41.684Z,23.67
2024-03-05T15:07:50.928Z,25.00
2024-03-05T15:10:23.899Z,23.33
2024-03-05T15:12:32.775Z,22.00
2024-03-05T15:14:54.687Z,23.00
2024-03-05T15:17:10.812Z,26.00
2024-03-05T15:19:41.812Z,24.00
2024-03-05T15:22:13.802Z,24.33
2024-03-05T15:24:42.713Z,26.00
2024-03-05T15:27:11.742Z,23.67
2024-03-05T15:29:34.684Z,24.67
2024-03-05T15:31:49.756Z,24.00
2024-03-05T15:34:18.693Z,26.33
2024-03-05T15:36:47.915Z,23.33
2024-03-05T15:39:14.235Z,25.00
2024-03-05T15:41:22.922Z,24.00
2024-03-05T15:43:44.895Z,24.67
2024-03-05T15:45:53.807Z,24.00
2024-03-05T15:48:20.392Z,26.00
2024-03-05T15:50:37.376Z,27.00
2024-03-05T15:52:55.798Z,29.75
2024-03-05T15:55:18.741Z,26.25
2024-03-05T15:57:33.086Z,27.00
2024-03-05T16:00:12.830Z,26.25
2024-03-05T16:02:23.913Z,27.50
2024-03-05T16:05:05.156Z,22.50
2024-03-05T16:07:20.958Z,27.25
2024-03-05T16:09:37.758Z,28.00
2024-03-05T16:11:53.787Z,29.00
2024-03-05T16:14:22.820Z,29.00
2024-03-05T16:16:51.723Z,28.00
2024-03-05T16:19:14.096Z,29.50
2024-03-05T16:21:25.302Z,28.25
2024-03-05T16:23:47.692Z,28.50
2024-03-05T16:25:56.996Z,31.00
2024-03-05T16:28:18.781Z,29.00
2024-03-05T16:30:30.936Z,28.50
2024-03-05T16:32:53.791Z,29.00
2024-03-05T16:35:08.995Z,28.50
2024-03-05T16:37:31.992Z,27.25
2024-03-05T16:39:50.670Z,25.25
2024-03-05T16:42:19.940Z,30.00
2024-03-05T16:44:44.756Z,30.25
2024-03-05T16:47:02.047Z,28.00
2024-03-05T16:49:23.905Z,30.00
2024-03-05T16:51:31.818Z,28.25
2024-03-05T16:53:53.693Z,31.25
2024-03-05T16:56:08.960Z,32.00
2024-03-05T16:58:23.712Z,34.00
2024-03-05T17:00:49.169Z,33.50
2024-03-05T17:03:07.681Z,34.50
2024-03-05T17:05:34.426Z,35.00
2024-03-05T17:07:54.179Z,35.25
2024-03-05T17:10:10.678Z,34.50
2024-03-05T17:12:32.707Z,34.50
2024-03-05T17:14:54.686Z,46.00
2024-03-05T17:17:06.518Z,52.50
2024-03-05T17:19:30.881Z,73.25
2024-03-05T17:21:45.748Z,34.50
2024-03-05T17:24:07.812Z,33.50
2024-03-05T17:26:17.611Z,32.50
2024-03-05T17:28:39.737Z,35.50
2024-03-05T17:30:55.752Z,35.00
2024-03-05T17:33:25.057Z,38.00
2024-03-05T17:35:48.732Z,37.25
2024-03-05T17:37:57.898Z,36.00
2024-03-05T17:40:21.745Z,37.25
2024-03-05T17:42:29.886Z,36.50
2024-03-05T17:44:52.759Z,36.75
2024-03-05T17:47:00.872Z,37.50
2024-03-05T17:49:22.762Z,32.75
2024-03-05T17:51:38.796Z,32.00
2024-03-05T17:54:00.748Z,34.75
2024-03-05T17:56:18.774Z,29.25
2024-03-05T17:58:47.875Z,34.00
2024-03-05T18:01:09.779Z,40.75
2024-03-05T18:03:23.696Z,34.75
2024-03-05T18:05:45.777Z,38.00
2024-03-05T18:07:54.120Z,36.75
2024-03-05T18:10:16.765Z,40.00
2024-03-05T18:12:31.757Z,35.75
2024-03-05T18:15:01.701Z,34.25
2024-03-05T18:17:24.740Z,33.25
2024-03-05T18:19:40.963Z,27.75
2024-03-05T18:22:02.655Z,34.75
2024-03-05T18:24:13.325Z,35.00
2024-03-05T18:26:35.710Z,35.00
2024-03-05T18:28:44.580Z,33.25
2024-03-05T18:31:06.713Z,34.00
2024-03-05T18:33:24.850Z,33.50
2024-03-05T18:35:53.769Z,32.25
2024-03-05T18:38:28.432Z,35.00
2024-03-05T18:40:46.742Z,33.00
2024-03-05T18:43:04.073Z,33.00
2024-03-05T18:45:22.710Z,34.00
2024-03-05T18:47:46.457Z,35.00
2024-03-05T18:50:06.773Z,34.75
2024-03-05T18:52:28.682Z,35.75
2024-03-05T18:54:37.132Z,34.50
2024-03-05T18:56:58.779Z,36.00
2024-03-05T18:59:08.331Z,37.00
2024-03-05T19:01:30.763Z,36.00
2024-03-05T19:03:47.661Z,37.00
2024-03-05T19:06:16.731Z,32.25
2024-03-05T19:08:40.679Z,34.00
2024-03-05T19:10:49.963Z,34.00
2024-03-05T19:13:12.720Z,35.75
2024-03-05T19:15:23.838Z,34.00
2024-03-05T19:17:45.836Z,27.00
2024-03-05T19:20:01.816Z,32.00
2024-03-05T19:22:23.690Z,36.75
2024-03-05T19:24:33.163Z,37.00
2024-03-05T19:27:14.668Z,31.75
2024-03-05T19:29:24.043Z,25.50
2024-03-05T19:31:49.823Z,30.00
2024-03-05T19:34:05.661Z,29.50
2024-03-05T19:36:27.720Z,31.00
2024-03-05T19:38:42.821Z,30.75
2024-03-05T19:41:17.757Z,29.75
2024-03-05T19:43:48.728Z,32.00
2024-03-05T19:46:20.188Z,30.75
2024-03-05T19:48:56.306Z,28.50
2024-03-05T19:51:25.706Z,29.00
2024-03-05T19:53:47.684Z,30.50
2024-03-05T19:56:02.782Z,32.00
2024-03-05T19:58:25.693Z,40.25
2024-03-05T20:00:36.515Z,33.25
2024-03-05T20:02:59.698Z,35.00
2024-03-05T20:05:07.993Z,34.75
2024-03-05T20:07:29.790Z,35.25
2024-03-05T20:09:45.698Z,35.00
2024-03-05T20:12:07.721Z,33.75
2024-03-05T20:14:17.665Z,31.25
2024-03-05T20:16:39.662Z,32.00
2024-03-05T20:18:54.761Z,32.50
2024-03-05T20:21:23.688Z,34.00
2024-03-05T20:23:45.844Z,33.00
2024-03-05T20:25:54.864Z,34.00
2024-03-05T20:28:20.685Z,32.00
2024-03-05T20:30:36.729Z,35.50
2024-03-05T20:32:58.742Z,35.25
2024-03-05T20:35:15.709Z,35.25
2024-03-05T20:37:44.767Z,34.75
2024-03-05T20:40:15.723Z,37.00
2024-03-05T20:42:44.801Z,35.00
2024-03-05T20:45:13.605Z,34.00
2024-03-05T20:47:37.691Z,34.75
2024-03-05T20:49:46.729Z,35.00
2024-03-05T20:52:08.631Z,33.00
2024-03-05T20:54:23.651Z,31.25
2024-03-05T20:56:52.607Z,37.50
2024-03-05T20:59:14.757Z,32.25
2024-03-05T21:01:24.165Z,31.00
2024-03-05T21:03:39.032Z,34.00
2024-03-05T21:05:53.677Z,31.25
2024-03-05T21:08:01.787Z,29.50
2024-03-05T21:10:11.673Z,33.75
2024-03-05T21:12:26.645Z,34.25
2024-03-05T21:14:48.696Z,33.75
2024-03-05T21:17:17.690Z,36.00
2024-03-05T21:19:39.750Z,34.75
2024-03-05T21:22:06.985Z,35.25
2024-03-05T21:24:30.704Z,33.75
2024-03-05T21:26:54.294Z,36.00
2024-03-05T21:29:15.068Z,37.00
2024-03-05T21:31:29.718Z,35.25
2024-03-05T21:33:38.828Z,38.00
2024-03-05T21:35:53.697Z,37.25
2024-03-05T21:38:08.812Z,37.00
2024-03-05T21:40:23.610Z,41.00
2024-03-05T21:42:46.785Z,37.00
2024-03-05T21:45:01.871Z,34.00
2024-03-05T21:47:17.746Z,33.50
2024-03-05T21:49:33.191Z,29.75
2024-03-05T21:51:54.646Z,33.50
2024-03-05T21:54:10.645Z,33.00
2024-03-05T21:56:25.822Z,31.75
2024-03-05T21:58:40.673Z,27.75
2024-03-05T22:01:02.921Z,32.00
2024-03-05T22:03:10.986Z,30.75
2024-03-05T22:05:34.754Z,31.00
2024-03-05T22:07:43.333Z,31.75
2024-03-05T22:10:06.827Z,33.00
2024-03-05T22:12:21.679Z,34.00
2024-03-05T22:14:50.624Z,34.50
2024-03-05T22:17:16.650Z,30.00
2024-03-05T22:19:26.237Z,35.00
2024-03-05T22:21:48.837Z,34.75
2024-03-05T22:23:56.807Z,32.50
2024-03-05T22:26:18.690Z,32.00
2024-03-05T22:28:33.697Z,33.00
2024-03-05T22:31:02.909Z,32.00
2024-03-05T22:33:24.738Z,32.00
2024-03-05T22:35:32.840Z,34.50
2024-03-05T22:37:57.745Z,35.50
2024-03-05T22:40:07.208Z,36.00
2024-03-05T22:42:28.779Z,35.50
2024-03-05T22:44:44.676Z,33.00
2024-03-05T22:47:13.746Z,33.75
2024-03-05T22:49:35.686Z,35.00
2024-03-05T22:51:50.893Z,35.50
2024-03-05T22:54:06.658Z,35.00
2024-03-05T22:56:28.708Z,38.00
2024-03-05T22:58:38.495Z,38.25
2024-03-05T23:01:05.855Z,37.00
2024-03-05T23:03:15.602Z,35.75
2024-03-05T23:05:39.698Z,38.50
2024-03-05T23:07:48.413Z,39.50
2024-03-05T23:10:10.709Z,38.00
2024-03-05T23:12:25.662Z,38.25
2024-03-05T23:14:57.593Z,39.25
2024-03-05T23:17:23.772Z,34.50
2024-03-05T23:19:38.738Z,39.00
2024-03-05T23:22:07.626Z,38.00
2024-03-05T23:24:29.676Z,39.25
2024-03-05T23:26:38.109Z,37.00
2024-03-05T23:29:00.731Z,39.75
2024-03-05T23:31:23.654Z,39.25
2024-03-05T23:33:38.632Z,42.25
2024-03-05T23:35:53.736Z,37.00
2024-03-05T23:38:08.857Z,41.75
2024-03-05T23:40:31.655Z,40.00
2024-03-05T23:42:41.004Z,40.50
2024-03-05T23:45:02.875Z,35.50
2024-03-05T23:47:11.024Z,39.00
2024-03-05T23:49:32.764Z,37.50
2024-03-05T23:52:02.755Z,36.25
2024-03-05T23:54:24.631Z,31.00
2024-03-05T23:56:32.787Z,39.25
2024-03-05T23:58:57.668Z,38.75
